Impacts METAR Board INFO
IDs:

KCLT - Charlotte/Douglas In, NC, US

Updated at: 1859 UTC 20 Jan 2018
Potential Impact None Slight Moderate High
Time20/06Z 20/07Z 20/08Z 20/09Z 20/10Z 20/11Z 20/12Z 20/13Z 20/14Z 20/15Z 20/16Z 20/17Z 20/18Z
VIS10 10 10 10 10 10 10 10 10 10 10 10 10
CIG-- -- -- -- -- -- -- -- -- -- -- -- --
CoverCLRCLRCLRCLRCLRCLRCLRFEWFEWFEWFEWFEWFEW
FltCatVFRVFRVFRVFRVFRVFRVFRVFRVFRVFRVFRVFRVFR
WX--------------------------
WDir1900002002102900030001000
WSpd4 0 0 0 5 6 4 0 0 4 0 3 3
WGst-- -- -- -- -- -- -- -- -- -- -- -- --
Raw hourly METARs
KCLT 200552Z 19004KT 10SM CLR M01/M06 A3016 RMK AO2 SLP215 T10061061 10094 21006 58003
KCLT 200652Z 00000KT 10SM CLR 01/M07 A3015 RMK AO2 SLP210 T00061067
KCLT 200752Z 00000KT 10SM CLR 01/M08 A3015 RMK AO2 SLP211 T00111078
KCLT 200852Z 00000KT 10SM CLR M01/M09 A3014 RMK AO2 SLP210 T10061089 56006
KCLT 200952Z 20005KT 10SM CLR M02/M08 A3015 RMK AO2 SLP213 T10221078
KCLT 201052Z 21006KT 10SM CLR M01/M08 A3016 RMK AO2 SLP215 T10111078
KCLT 201152Z 29004KT 10SM CLR M01/M08 A3018 RMK AO2 SLP222 T10061083 10017 21028 53011
KCLT 201252Z 00000KT 10SM FEW250 M02/M07 A3018 RMK AO2 SLP224 T10221072
KCLT 201352Z 00000KT 10SM FEW250 02/M06 A3020 RMK AO2 SLP227 T00221061
KCLT 201452Z 30004KT 10SM FEW250 04/M06 A3021 RMK AO2 SLP234 T00391061 53013
KCLT 201552Z 00000KT 10SM FEW250 09/M05 A3022 RMK AO2 SLP234 T00891050
KCLT 201652Z 10003KT 10SM FEW250 11/M03 A3020 RMK AO2 SLP229 T01061033
KCLT 201752Z VRB03KT 10SM FEW250 14/00 A3017 RMK AO2 SLP218 T01390000 10144 21044 58014